createdAt,value
2017-01-27T00:00:03.217Z,-3.7
2017-01-27T00:05:03.169Z,-3.5
2017-01-27T00:10:03.123Z,-3.5
2017-01-27T00:15:02.823Z,-3.5
2017-01-27T00:20:02.744Z,-3.7
2017-01-27T00:25:02.474Z,-3.7
2017-01-27T00:30:02.401Z,-3.7
2017-01-27T00:35:03.173Z,-3.7
2017-01-27T00:40:02.947Z,-3.7
2017-01-27T00:45:02.759Z,-3.7
2017-01-27T00:50:02.507Z,-3.5
2017-01-27T00:55:03.252Z,-3.5
2017-01-27T01:00:02.953Z,-3.5
2017-01-27T01:05:02.487Z,-3.2
2017-01-27T01:10:03.311Z,-3.5
2017-01-27T01:15:03.004Z,-3.5
2017-01-27T01:20:02.672Z,-3.7
2017-01-27T01:25:02.486Z,-3.7
2017-01-27T01:30:03.202Z,-3.9
2017-01-27T01:35:02.822Z,-3.7
2017-01-27T01:40:02.567Z,-3.7
2017-01-27T01:45:03.330Z,-3.7
2017-01-27T01:50:03.091Z,-4.0
2017-01-27T01:55:02.864Z,-4.0
2017-01-27T02:00:02.831Z,-4.0
2017-01-27T02:05:02.665Z,-3.9
2017-01-27T02:10:02.433Z,-3.9
2017-01-27T02:15:03.247Z,-3.9
2017-01-27T02:20:03.014Z,-3.9
2017-01-27T02:25:02.838Z,-4.0
2017-01-27T02:30:02.648Z,-3.9
2017-01-27T02:35:02.398Z,-4.0
2017-01-27T02:40:03.319Z,-4.0
2017-01-27T02:45:03.002Z,-4.0
2017-01-27T02:50:02.627Z,-4.3
2017-01-27T02:55:02.524Z,-4.3
2017-01-27T03:00:03.377Z,-4.3
2017-01-27T03:05:02.965Z,-4.3
2017-01-27T03:10:02.806Z,-4.3
2017-01-27T03:15:02.511Z,-4.5
2017-01-27T03:20:03.214Z,-4.5
2017-01-27T03:25:02.956Z,-4.0
2017-01-27T03:30:02.693Z,-4.0
2017-01-27T03:35:02.411Z,-3.7
2017-01-27T03:40:03.189Z,-3.7
2017-01-27T03:45:02.799Z,-3.7
2017-01-27T03:50:02.522Z,-3.9
2017-01-27T03:55:03.296Z,-4.0
2017-01-27T04:00:03.033Z,-4.0
2017-01-27T04:05:02.995Z,-3.9
2017-01-27T04:10:02.749Z,-3.9
2017-01-27T04:15:02.613Z,-4.0
2017-01-27T04:20:03.342Z,-4.3
2017-01-27T04:25:03.139Z,-4.3
2017-01-27T04:30:02.830Z,-4.0
2017-01-27T04:35:02.713Z,-4.0
2017-01-27T04:40:02.676Z,-4.0
2017-01-27T04:45:02.446Z,-4.3
2017-01-27T04:50:03.208Z,-4.3
2017-01-27T04:55:02.702Z,-4.3
2017-01-27T05:00:02.452Z,-4.3
2017-01-27T05:05:03.176Z,-4.3
2017-01-27T05:10:03.117Z,-4.0
2017-01-27T05:15:02.863Z,-4.0
2017-01-27T05:20:17.484Z,-4.0
2017-01-27T05:25:03.090Z,-4.3
2017-01-27T05:30:02.919Z,-4.3
2017-01-27T05:35:02.742Z,-4.0
2017-01-27T05:40:02.514Z,-4.0
2017-01-27T05:45:03.164Z,-4.0
2017-01-27T05:50:02.749Z,-3.9
2017-01-27T05:55:02.506Z,-3.9
2017-01-27T06:00:02.421Z,-4.0
2017-01-27T06:05:02.989Z,-3.9
2017-01-27T06:10:02.936Z,-3.9
2017-01-27T06:15:02.590Z,-3.9
2017-01-27T06:20:02.488Z,-3.9
2017-01-27T06:25:03.166Z,-3.9
2017-01-27T06:30:02.955Z,-4.0
2017-01-27T06:35:02.606Z,-4.0
2017-01-27T06:40:03.285Z,-3.9
2017-01-27T06:45:03.085Z,-4.0
2017-01-27T06:50:02.664Z,-4.0
2017-01-27T06:55:02.628Z,-4.0
2017-01-27T07:00:02.481Z,-4.0
2017-01-27T07:05:02.410Z,-4.0
2017-01-27T07:10:03.299Z,-4.0
2017-01-27T07:15:02.910Z,-3.9
2017-01-27T07:20:02.868Z,-4.0
2017-01-27T07:25:02.572Z,-3.9
2017-01-27T07:30:02.435Z,-3.9
2017-01-27T07:35:02.966Z,-3.7
2017-01-27T07:40:02.764Z,-3.9
2017-01-27T07:45:02.402Z,-3.7
2017-01-27T07:50:03.078Z,-3.7
2017-01-27T07:55:02.890Z,-3.5
2017-01-27T08:00:02.691Z,-3.2
2017-01-27T08:05:02.391Z,-3.0
2017-01-27T08:10:03.330Z,-2.9
2017-01-27T08:15:02.950Z,-2.9
2017-01-27T08:20:02.645Z,-2.7
2017-01-27T08:25:02.473Z,-2.5
2017-01-27T08:30:03.172Z,-2.2
2017-01-27T08:35:02.764Z,-2.0
2017-01-27T08:40:02.581Z,-1.8
2017-01-27T08:45:03.262Z,-1.7
2017-01-27T08:50:02.842Z,-1.5
2017-01-27T08:55:02.589Z,-1.2
2017-01-27T09:00:03.127Z,-1.1
2017-01-27T09:05:02.750Z,-0.6
2017-01-27T09:10:02.717Z,-0.6
2017-01-27T09:15:02.421Z,-0.5
2017-01-27T09:20:03.059Z,-0.3
2017-01-27T09:25:02.776Z,0.0
2017-01-27T09:30:02.700Z,0.1
2017-01-27T09:35:03.311Z,0.3
2017-01-27T09:40:03.132Z,0.4
2017-01-27T09:45:03.180Z,0.6
2017-01-27T09:50:02.888Z,0.8
2017-01-27T09:55:02.456Z,1.1
2017-01-27T10:00:02.430Z,1.3
2017-01-27T10:05:03.142Z,1.6
2017-01-27T10:10:03.289Z,1.8
2017-01-27T10:15:03.343Z,2.2
2017-01-27T10:20:03.332Z,3.0
2017-01-27T10:25:02.588Z,3.0
2017-01-27T10:30:02.593Z,3.5
2017-01-27T10:35:02.687Z,3.7
2017-01-27T10:40:02.985Z,3.7
2017-01-27T10:45:02.621Z,4.0
2017-01-27T10:50:03.291Z,4.3
2017-01-27T10:55:03.031Z,4.3
2017-01-27T11:00:02.886Z,4.5
2017-01-27T11:05:02.880Z,5.0
2017-01-27T11:10:02.967Z,5.3
2017-01-27T11:15:02.728Z,5.4
2017-01-27T11:20:02.553Z,5.5
2017-01-27T11:25:03.278Z,5.5
2017-01-27T11:30:02.948Z,5.9
2017-01-27T11:35:03.005Z,6.0
2017-01-27T11:40:02.434Z,6.0
2017-01-27T11:45:02.633Z,6.0
2017-01-27T11:50:02.760Z,6.0
2017-01-27T11:55:02.673Z,6.1
2017-01-27T12:00:02.740Z,6.0
2017-01-27T12:05:02.570Z,6.1
2017-01-27T12:10:02.459Z,6.1
2017-01-27T12:15:02.486Z,6.5
2017-01-27T12:20:02.467Z,6.5
2017-01-27T12:25:02.503Z,6.4
2017-01-27T12:30:02.519Z,6.4
2017-01-27T12:35:03.251Z,6.0
2017-01-27T12:40:03.255Z,6.0
2017-01-27T12:45:03.049Z,6.1
2017-01-27T12:50:03.104Z,6.1
2017-01-27T12:55:03.071Z,6.1
2017-01-27T13:00:03.077Z,6.4
2017-01-27T13:05:03.032Z,6.4
2017-01-27T13:10:03.104Z,6.4
2017-01-27T13:15:03.291Z,6.4
2017-01-27T13:20:03.306Z,6.4
2017-01-27T13:25:03.139Z,6.4
2017-01-27T13:30:03.094Z,6.4
2017-01-27T13:35:03.158Z,6.5
2017-01-27T13:40:03.080Z,6.5
2017-01-27T13:45:03.273Z,6.5
2017-01-27T13:50:03.335Z,6.5
2017-01-27T13:55:03.367Z,6.5
2017-01-27T14:00:02.975Z,6.5
2017-01-27T14:05:02.914Z,6.5
2017-01-27T14:10:03.308Z,6.4
2017-01-27T14:15:03.391Z,6.5
2017-01-27T14:20:02.415Z,6.5
2017-01-27T14:25:02.535Z,6.5
2017-01-27T14:30:03.339Z,6.5
2017-01-27T14:35:03.242Z,6.4
2017-01-27T14:40:02.756Z,6.4
2017-01-27T14:45:02.921Z,6.1
2017-01-27T14:50:02.846Z,6.0
2017-01-27T14:55:03.251Z,6.0
2017-01-27T15:00:03.320Z,5.9
2017-01-27T15:05:03.248Z,5.9
2017-01-27T15:10:02.412Z,5.8
2017-01-27T15:15:03.211Z,5.8
2017-01-27T15:20:03.136Z,5.5
2017-01-27T15:25:02.526Z,5.4
2017-01-27T15:30:02.537Z,5.4
2017-01-27T15:35:02.711Z,5.4
2017-01-27T15:40:02.665Z,5.4
2017-01-27T15:45:02.649Z,5.3
2017-01-27T15:50:02.937Z,5.3
2017-01-27T15:55:02.883Z,5.3
2017-01-27T16:00:02.781Z,5.0
2017-01-27T16:05:02.563Z,4.8
2017-01-27T16:10:02.821Z,4.8
2017-01-27T16:15:02.971Z,4.5
2017-01-27T16:20:03.136Z,4.5
2017-01-27T16:25:03.284Z,4.5
2017-01-27T16:30:02.953Z,4.5
2017-01-27T16:35:02.962Z,4.5
2017-01-27T16:40:03.399Z,4.8
2017-01-27T16:45:02.436Z,4.5
2017-01-27T16:50:03.284Z,4.5
2017-01-27T16:55:03.184Z,4.5
2017-01-27T17:00:02.873Z,4.5
2017-01-27T17:05:02.626Z,4.0
2017-01-27T17:10:02.661Z,4.3
2017-01-27T17:15:02.943Z,4.3
2017-01-27T17:20:02.561Z,4.0
2017-01-27T17:25:02.422Z,4.3
2017-01-27T17:30:03.241Z,4.5
2017-01-27T17:35:03.014Z,4.5
2017-01-27T17:40:03.248Z,4.5
2017-01-27T17:45:03.247Z,4.5
2017-01-27T17:50:02.509Z,4.5
2017-01-27T17:55:03.376Z,4.5
2017-01-27T18:00:02.975Z,4.5
2017-01-27T18:05:02.806Z,4.5
2017-01-27T18:10:02.579Z,4.5
2017-01-27T18:15:03.200Z,4.5
2017-01-27T18:20:03.006Z,4.5
2017-01-27T18:25:02.829Z,4.5
2017-01-27T18:30:02.570Z,4.5
2017-01-27T18:35:02.508Z,4.8
2017-01-27T18:40:03.188Z,4.8
2017-01-27T18:45:03.001Z,4.8
2017-01-27T18:50:02.641Z,5.0
2017-01-27T18:55:02.536Z,5.0
2017-01-27T19:00:02.461Z,4.5
2017-01-27T19:05:02.425Z,4.5
2017-01-27T19:10:03.133Z,4.5
2017-01-27T19:15:03.129Z,4.5
2017-01-27T19:20:03.222Z,4.5
2017-01-27T19:25:02.996Z,4.0
2017-01-27T19:30:03.095Z,4.3
2017-01-27T19:35:03.327Z,4.0
2017-01-27T19:40:03.319Z,4.3
2017-01-27T19:45:03.087Z,4.0
2017-01-27T19:50:02.911Z,4.0
2017-01-27T19:55:02.881Z,4.0
2017-01-27T20:00:02.924Z,4.0
2017-01-27T20:05:02.584Z,4.0
2017-01-27T20:10:02.507Z,3.7
2017-01-27T20:15:02.569Z,3.7
2017-01-27T20:20:03.362Z,3.7
2017-01-27T20:25:02.978Z,3.7
2017-01-27T20:30:02.951Z,3.7
2017-01-27T20:35:02.669Z,3.7
2017-01-27T20:40:02.718Z,3.5
2017-01-27T20:45:02.498Z,3.2
2017-01-27T20:50:03.138Z,3.5
2017-01-27T20:55:02.981Z,3.7
2017-01-27T21:00:02.752Z,3.7
2017-01-27T21:05:02.684Z,3.5
2017-01-27T21:10:02.570Z,3.7
2017-01-27T21:15:03.315Z,4.0
2017-01-27T21:20:03.055Z,4.0
2017-01-27T21:25:03.056Z,4.0
2017-01-27T21:30:02.995Z,4.3
2017-01-27T21:35:02.579Z,4.0
2017-01-27T21:40:02.489Z,4.0
2017-01-27T21:45:03.329Z,4.0
2017-01-27T21:50:02.501Z,3.7
2017-01-27T21:55:03.223Z,4.0
2017-01-27T22:00:03.227Z,3.7
2017-01-27T22:05:03.061Z,3.7
2017-01-27T22:10:02.797Z,4.0
2017-01-27T22:15:02.610Z,4.0
2017-01-27T22:20:02.459Z,3.7
2017-01-27T22:25:03.048Z,3.2
2017-01-27T22:30:02.941Z,3.5
2017-01-27T22:35:02.764Z,3.2
2017-01-27T22:40:02.663Z,3.5
2017-01-27T22:45:03.372Z,3.5
2017-01-27T22:50:02.950Z,3.5
2017-01-27T22:55:02.575Z,3.5
2017-01-27T23:00:02.474Z,3.2
2017-01-27T23:05:03.404Z,3.5
2017-01-27T23:10:03.257Z,3.5
2017-01-27T23:15:03.033Z,3.5
2017-01-27T23:20:02.772Z,3.5
2017-01-27T23:25:02.807Z,3.5
2017-01-27T23:30:02.443Z,3.2
2017-01-27T23:35:03.191Z,3.2
2017-01-27T23:40:02.822Z,3.2
2017-01-27T23:45:02.468Z,3.2
2017-01-27T23:50:03.389Z,3.2
2017-01-27T23:55:03.164Z,3.2
